Linden, Virginia
Current Conditions -  °F | °C
As of 5:35 PM on Wednesday 22 Oct 2014 (Local Time) from KFRR Reporting Station
Overcast Overcast  
Wind Chill: 54°   Ceiling: 4800
Heat Index: 54°   Visibility: 10mi
Dew Point: 45°   Wind: 13mph
Humidity: 72%   Direction: 310°NW
Pressure: 30"   Gusts: 20mph
Location:  38.91°N, 78.08°W
Report Text: KFRR 222135Z AUTO 31011G17KT 10SM BKN048 BKN060 OVC070 12/07 A3000 RMK AO1
Loading
Personal Weather Stations






























Interactive Weather Map
Tropical Storm Tracking
New forecast layout! Learn more

10-Day Weather Forecast

Advertisements
Track Severe Weather on mobile